Aérodrome :
LOGIN :

S'inscrire | Disclaimer

   EN    FR    IT 

 










Légende :    VFR   VFR Marginal   IFR   IFR Intensif   IFR Très Intensif
Visi : 
Plafond : 
>= 8 km
>= 3000ft
5 à 8 km
1000 à 3000 ft
1500m à 5 km
500 à 1000 ft
800 à 1500m
200 à 500 ft
< 800m
< 200 ft
Symboles :   Orages  Brouillard  Fortes neiges  Fortes précipitations  Vent > 20 kt
SIGMETs :   Divers  Orages  Givrage  Turbulence  Onde Orograph.  Cendres Volcan.







- Altitude de l'aérodrome : 52 ft
- Code IATA : IOM
- Voir les cartes d'approche


EGNS - Isle of Man

DERNIER METAR :
  • 211320Z 20021KT 9999 SCT009 16/14 Q1020 BECMG 6000 RA BKN008

METARs EXPIRÉS :
  • 211250Z 20021KT 9999 FEW009 16/14 Q1020 BECMG 6000 RA BKN008
  • 211220Z 20021KT 9999 SCT009 16/14 Q1021 NOSIG
  • 211150Z 20019KT 9999 FEW008 16/14 Q1021 NOSIG
  • 211120Z 20018KT 9999 FEW010 16/14 Q1021 NOSIG
  • 211050Z 20017KT 9999 SCT009 17/14 Q1021 NOSIG

TAF TAF EGNS
Valide du 21 à 12h jusqu'au 21 à 21h UTC


211100Z 2112/2121 20023KT 9999 SCT009 SCT050
TEMPO 2112/2113 BKN009
BECMG 2113/2117 20025G37KT 6000 RA BKN009
TEMPO 2114/2121 3000 +RA BKN006
Pas de NOTAMs connus pour ce terrain.



MET'MAP, la Météo Aéronautique d'un coup d'oeil ! - Copyright ORBIFLY Décembre 2007 - Disclaimer

ORBIFLY MET'MAP TEAM :

Programmation & Développement : Alexandra Zaïnal
Conception & Développement : Baudouin d'Aumeries
Co-Programmation & Développement : Marc-Olivier Méhu
Soutien technique & logistique : Manuel Goepfert

Contact : metmap@orbifly.com




SOURCES & CREDITS :

   NOAA